sensor_id;sensor_type;location;lat;lon;timestamp;pressure;altitude;pressure_sealevel;temperature;humidity
7026;BME280;3554;42.132;24.786;2023-02-12T00:00:14;100410.63;;;0.79;99.27
7026;BME280;3554;42.132;24.786;2023-02-12T00:02:41;100376.22;;;0.75;97.62
7026;BME280;3554;42.132;24.786;2023-02-12T00:05:09;100380.72;;;0.88;96.40
7026;BME280;3554;42.132;24.786;2023-02-12T00:07:36;100401.47;;;0.97;97.43
7026;BME280;3554;42.132;24.786;2023-02-12T00:10:03;100387.66;;;0.92;97.44
7026;BME280;3554;42.132;24.786;2023-02-12T00:12:30;100388.75;;;1.08;99.84
7026;BME280;3554;42.132;24.786;2023-02-12T00:14:57;100384.84;;;0.77;96.26
7026;BME280;3554;42.132;24.786;2023-02-12T00:17:24;100389.22;;;0.81;94.77
7026;BME280;3554;42.132;24.786;2023-02-12T00:19:50;100380.78;;;0.94;94.35
7026;BME280;3554;42.132;24.786;2023-02-12T00:22:18;100392.06;;;0.99;94.61
7026;BME280;3554;42.132;24.786;2023-02-12T00:24:45;100376.47;;;0.92;93.89
7026;BME280;3554;42.132;24.786;2023-02-12T00:27:12;100386.75;;;0.89;94.15
7026;BME280;3554;42.132;24.786;2023-02-12T00:29:39;100380.69;;;0.85;97.11
7026;BME280;3554;42.132;24.786;2023-02-12T00:32:06;100373.53;;;0.66;98.58
7026;BME280;3554;42.132;24.786;2023-02-12T00:34:33;100367.09;;;0.39;100.00
7026;BME280;3554;42.132;24.786;2023-02-12T00:36:59;100364.97;;;0.15;100.00
7026;BME280;3554;42.132;24.786;2023-02-12T00:39:27;100360.69;;;0.16;100.00
7026;BME280;3554;42.132;24.786;2023-02-12T00:41:54;100357.78;;;-0.06;100.00
7026;BME280;3554;42.132;24.786;2023-02-12T00:44:21;100335.44;;;-0.07;100.00
7026;BME280;3554;42.132;24.786;2023-02-12T00:46:48;100351.00;;;-0.01;100.00
7026;BME280;3554;42.132;24.786;2023-02-12T00:49:14;100345.09;;;0.05;100.00
7026;BME280;3554;42.132;24.786;2023-02-12T00:51:43;100330.56;;;0.09;100.00
7026;BME280;3554;42.132;24.786;2023-02-12T00:54:10;100326.34;;;0.12;100.00
7026;BME280;3554;42.132;24.786;2023-02-12T00:56:38;100318.03;;;0.30;100.00
7026;BME280;3554;42.132;24.786;2023-02-12T00:59:05;100323.00;;;0.18;100.00
7026;BME280;3554;42.132;24.786;2023-02-12T01:01:32;100321.50;;;0.32;100.00
7026;BME280;3554;42.132;24.786;2023-02-12T01:03:59;100318.78;;;0.23;100.00
7026;BME280;3554;42.132;24.786;2023-02-12T01:06:25;100314.53;;;0.26;100.00
7026;BME280;3554;42.132;24.786;2023-02-12T01:08:52;100298.38;;;0.36;100.00
7026;BME280;3554;42.132;24.786;2023-02-12T01:11:19;100312.16;;;0.40;100.00
7026;BME280;3554;42.132;24.786;2023-02-12T01:13:47;100301.13;;;0.47;100.00
7026;BME280;3554;42.132;24.786;2023-02-12T01:16:16;100290.00;;;0.48;100.00
7026;BME280;3554;42.132;24.786;2023-02-12T01:18:45;100306.38;;;0.54;100.00
7026;BME280;3554;42.132;24.786;2023-02-12T01:21:15;100286.16;;;0.81;89.67
7026;BME280;3554;42.132;24.786;2023-02-12T01:23:42;100290.16;;;1.29;80.64
7026;BME280;3554;42.132;24.786;2023-02-12T01:26:10;100304.25;;;1.59;76.66
7026;BME280;3554;42.132;24.786;2023-02-12T01:28:37;100293.22;;;1.75;74.37
7026;BME280;3554;42.132;24.786;2023-02-12T01:31:10;100303.66;;;1.87;72.44
7026;BME280;3554;42.132;24.786;2023-02-12T01:33:37;100302.03;;;1.98;70.16
7026;BME280;3554;42.132;24.786;2023-02-12T01:36:04;100288.31;;;2.04;68.71
7026;BME280;3554;42.132;24.786;2023-02-12T01:38:31;100303.03;;;2.15;69.48
7026;BME280;3554;42.132;24.786;2023-02-12T01:41:02;100287.44;;;2.00;70.21
7026;BME280;3554;42.132;24.786;2023-02-12T01:43:29;100296.06;;;2.01;69.89
7026;BME280;3554;42.132;24.786;2023-02-12T01:45:58;100283.06;;;1.90;70.10
7026;BME280;3554;42.132;24.786;2023-02-12T01:48:29;100291.66;;;1.92;70.21
7026;BME280;3554;42.132;24.786;2023-02-12T01:50:58;100295.13;;;1.94;70.04
7026;BME280;3554;42.132;24.786;2023-02-12T01:53:32;100300.31;;;1.97;67.84
7026;BME280;3554;42.132;24.786;2023-02-12T01:56:01;100286.56;;;2.00;69.51
7026;BME280;3554;42.132;24.786;2023-02-12T01:58:30;100290.91;;;2.07;68.11
7026;BME280;3554;42.132;24.786;2023-02-12T02:01:01;100287.59;;;2.22;66.56
7026;BME280;3554;42.132;24.786;2023-02-12T02:03:30;100286.03;;;2.42;65.37
7026;BME280;3554;42.132;24.786;2023-02-12T02:06:00;100285.22;;;2.49;65.38
7026;BME280;3554;42.132;24.786;2023-02-12T02:08:29;100283.53;;;2.54;64.15
7026;BME280;3554;42.132;24.786;2023-02-12T02:10:56;100286.09;;;2.55;63.75
7026;BME280;3554;42.132;24.786;2023-02-12T02:13:23;100289.56;;;2.53;62.54
7026;BME280;3554;42.132;24.786;2023-02-12T02:16:20;100275.66;;;2.37;63.25
7026;BME280;3554;42.132;24.786;2023-02-12T02:18:55;100281.69;;;2.38;62.17
7026;BME280;3554;42.132;24.786;2023-02-12T02:21:50;100293.72;;;2.33;61.65
7026;BME280;3554;42.132;24.786;2023-02-12T02:24:47;100295.38;;;2.25;61.39
7026;BME280;3554;42.132;24.786;2023-02-12T02:27:18;100269.47;;;2.12;61.29
7026;BME280;3554;42.132;24.786;2023-02-12T02:33:08;100304.84;;;2.24;60.80
7026;BME280;3554;42.132;24.786;2023-02-12T02:35:41;100282.38;;;2.14;60.06
7026;BME280;3554;42.132;24.786;2023-02-12T02:38:19;100285.91;;;2.28;59.33
7026;BME280;3554;42.132;24.786;2023-02-12T02:40:50;100306.63;;;2.36;59.81
7026;BME280;3554;42.132;24.786;2023-02-12T02:43:22;100304.91;;;2.33;60.53
7026;BME280;3554;42.132;24.786;2023-02-12T02:45:53;100299.78;;;2.39;60.29
7026;BME280;3554;42.132;24.786;2023-02-12T02:48:25;100281.63;;;2.29;60.60
7026;BME280;3554;42.132;24.786;2023-02-12T02:50:58;100307.50;;;2.35;60.24
7026;BME280;3554;42.132;24.786;2023-02-12T02:53:30;100303.13;;;2.26;61.46
7026;BME280;3554;42.132;24.786;2023-02-12T02:55:59;100305.81;;;2.37;61.87
7026;BME280;3554;42.132;24.786;2023-02-12T02:58:31;100292.03;;;2.36;61.93
7026;BME280;3554;42.132;24.786;2023-02-12T03:01:03;100304.06;;;2.33;63.43
7026;BME280;3554;42.132;24.786;2023-02-12T03:03:35;100298.88;;;2.30;64.25
7026;BME280;3554;42.132;24.786;2023-02-12T03:06:07;100276.47;;;2.29;64.87
7026;BME280;3554;42.132;24.786;2023-02-12T03:08:39;100291.16;;;2.39;66.25
7026;BME280;3554;42.132;24.786;2023-02-12T03:11:11;100275.63;;;2.30;66.84
7026;BME280;3554;42.132;24.786;2023-02-12T03:13:42;100295.56;;;2.53;66.59
7026;BME280;3554;42.132;24.786;2023-02-12T03:16:14;100293.84;;;2.55;65.96
7026;BME280;3554;42.132;24.786;2023-02-12T03:18:49;100294.75;;;2.62;65.42
7026;BME280;3554;42.132;24.786;2023-02-12T03:21:31;100296.44;;;2.58;65.68
7026;BME280;3554;42.132;24.786;2023-02-12T03:24:03;100241.13;;;2.26;65.85
7026;BME280;3554;42.132;24.786;2023-02-12T03:26:38;100289.56;;;2.57;65.86
7026;BME280;3554;42.132;24.786;2023-02-12T03:29:06;100292.22;;;2.65;65.69
7026;BME280;3554;42.132;24.786;2023-02-12T03:31:36;100290.44;;;2.58;65.86
7026;BME280;3554;42.132;24.786;2023-02-12T03:34:10;100280.06;;;2.49;65.75
7026;BME280;3554;42.132;24.786;2023-02-12T03:36:45;100294.75;;;2.60;64.99
7026;BME280;3554;42.132;24.786;2023-02-12T03:39:26;100281.81;;;2.53;65.28
7026;BME280;3554;42.132;24.786;2023-02-12T03:42:00;100280.94;;;2.54;64.06
7026;BME280;3554;42.132;24.786;2023-02-12T03:44:37;100275.84;;;2.66;63.31
7026;BME280;3554;42.132;24.786;2023-02-12T03:47:14;100275.06;;;2.79;62.98
7026;BME280;3554;42.132;24.786;2023-02-12T03:49:48;100279.34;;;2.81;64.35
7026;BME280;3554;42.132;24.786;2023-02-12T03:52:17;100268.22;;;2.90;64.02
7026;BME280;3554;42.132;24.786;2023-02-12T03:54:43;100280.28;;;2.94;63.93
7026;BME280;3554;42.132;24.786;2023-02-12T03:57:13;100280.28;;;2.94;63.53
7026;BME280;3554;42.132;24.786;2023-02-12T03:59:44;100284.59;;;2.93;63.39
7026;BME280;3554;42.132;24.786;2023-02-12T04:02:11;100284.59;;;2.96;62.96
7026;BME280;3554;42.132;24.786;2023-02-12T04:04:38;100273.41;;;2.96;62.51
7026;BME280;3554;42.132;24.786;2023-02-12T04:07:06;100275.09;;;2.91;63.35
7026;BME280;3554;42.132;24.786;2023-02-12T04:09:33;100277.72;;;3.00;64.54
7026;BME280;3554;42.132;24.786;2023-02-12T04:12:14;100277.72;;;3.00;65.15
7026;BME280;3554;42.132;24.786;2023-02-12T04:14:48;100259.63;;;2.95;65.42
7026;BME280;3554;42.132;24.786;2023-02-12T04:17:21;100275.19;;;3.13;66.04
7026;BME280;3554;42.132;24.786;2023-02-12T04:20:02;100271.75;;;3.16;65.59
7026;BME280;3554;42.132;24.786;2023-02-12T04:22:42;100284.69;;;3.19;63.92
7026;BME280;3554;42.132;24.786;2023-02-12T04:25:20;100287.28;;;3.17;63.28
7026;BME280;3554;42.132;24.786;2023-02-12T04:27:55;100284.69;;;3.16;62.08
7026;BME280;3554;42.132;24.786;2023-02-12T04:30:26;100286.44;;;3.21;61.12
7026;BME280;3554;42.132;24.786;2023-02-12T04:32:58;100289.91;;;3.29;59.73
7026;BME280;3554;42.132;24.786;2023-02-12T04:35:30;100289.03;;;3.26;60.27
7026;BME280;3554;42.132;24.786;2023-02-12T04:38:06;100291.66;;;3.32;60.20
7026;BME280;3554;42.132;24.786;2023-02-12T04:40:37;100302.91;;;3.43;59.54
7026;BME280;3554;42.132;24.786;2023-02-12T04:43:05;100303.75;;;3.39;59.65
7026;BME280;3554;42.132;24.786;2023-02-12T04:45:33;100302.88;;;3.40;59.05
7026;BME280;3554;42.132;24.786;2023-02-12T04:48:01;100312.41;;;3.53;58.51
7026;BME280;3554;42.132;24.786;2023-02-12T04:50:37;100293.38;;;3.33;58.58
7026;BME280;3554;42.132;24.786;2023-02-12T04:53:06;100318.44;;;3.52;58.59
7026;BME280;3554;42.132;24.786;2023-02-12T04:55:33;100308.97;;;3.54;59.06
7026;BME280;3554;42.132;24.786;2023-02-12T04:58:00;100307.22;;;3.56;59.16
7026;BME280;3554;42.132;24.786;2023-02-12T05:00:27;100313.28;;;3.54;59.67
7026;BME280;3554;42.132;24.786;2023-02-12T05:02:54;100236.38;;;3.04;60.18
7026;BME280;3554;42.132;24.786;2023-02-12T05:05:21;100305.47;;;3.45;61.30
7026;BME280;3554;42.132;24.786;2023-02-12T05:07:48;100303.72;;;3.33;60.87
7026;BME280;3554;42.132;24.786;2023-02-12T05:10:16;100317.56;;;3.41;60.04
7026;BME280;3554;42.132;24.786;2023-02-12T05:12:43;100313.22;;;3.40;60.08
7026;BME280;3554;42.132;24.786;2023-02-12T05:15:10;100308.03;;;3.36;59.93
7026;BME280;3554;42.132;24.786;2023-02-12T05:17:37;100327.91;;;3.41;61.62
7026;BME280;3554;42.132;24.786;2023-02-12T05:20:04;100321.84;;;3.38;62.25
7026;BME280;3554;42.132;24.786;2023-02-12T05:22:31;100337.38;;;3.44;61.14
7026;BME280;3554;42.132;24.786;2023-02-12T05:24:58;100334.78;;;3.44;61.98
7026;BME280;3554;42.132;24.786;2023-02-12T05:27:26;100342.56;;;3.42;61.85
7026;BME280;3554;42.132;24.786;2023-02-12T05:29:53;100344.31;;;3.48;62.29
7026;BME280;3554;42.132;24.786;2023-02-12T05:32:21;100340.88;;;3.49;63.18
7026;BME280;3554;42.132;24.786;2023-02-12T05:34:48;100338.28;;;3.49;63.94
7026;BME280;3554;42.132;24.786;2023-02-12T05:37:14;100292.44;;;3.20;64.31
7026;BME280;3554;42.132;24.786;2023-02-12T05:39:41;100334.81;;;3.47;63.72
7026;BME280;3554;42.132;24.786;2023-02-12T05:42:08;100344.34;;;3.54;63.75
7026;BME280;3554;42.132;24.786;2023-02-12T05:44:36;100354.69;;;3.54;63.83
7026;BME280;3554;42.132;24.786;2023-02-12T05:47:03;100348.63;;;3.56;63.34
7026;BME280;3554;42.132;24.786;2023-02-12T05:49:30;100362.44;;;3.60;63.90
7026;BME280;3554;42.132;24.786;2023-02-12T05:51:56;100366.78;;;3.64;64.64
7026;BME280;3554;42.132;24.786;2023-02-12T05:54:23;100365.06;;;3.67;62.89
7026;BME280;3554;42.132;24.786;2023-02-12T05:56:50;100355.59;;;3.68;63.23
7026;BME280;3554;42.132;24.786;2023-02-12T05:59:19;100302.88;;;3.37;63.10
7026;BME280;3554;42.132;24.786;2023-02-12T06:01:50;100358.19;;;3.80;62.86
7026;BME280;3554;42.132;24.786;2023-02-12T06:04:18;100368.59;;;3.86;62.61
7026;BME280;3554;42.132;24.786;2023-02-12T06:06:46;100346.13;;;3.86;63.13
7026;BME280;3554;42.132;24.786;2023-02-12T06:09:16;100373.78;;;4.11;62.34
7026;BME280;3554;42.132;24.786;2023-02-12T06:11:43;100293.47;;;3.75;62.09
7026;BME280;3554;42.132;24.786;2023-02-12T06:14:13;100344.44;;;4.14;62.43
7026;BME280;3554;42.132;24.786;2023-02-12T06:16:40;100342.72;;;4.19;62.55
7026;BME280;3554;42.132;24.786;2023-02-12T06:19:10;100365.19;;;4.30;63.08
7026;BME280;3554;42.132;24.786;2023-02-12T06:21:37;100360.03;;;4.40;62.04
7026;BME280;3554;42.132;24.786;2023-02-12T06:24:04;100336.69;;;4.40;62.61
7026;BME280;3554;42.132;24.786;2023-02-12T06:26:31;100359.13;;;4.54;62.60
7026;BME280;3554;42.132;24.786;2023-02-12T06:29:00;100267.63;;;4.04;62.41
7026;BME280;3554;42.132;24.786;2023-02-12T06:31:38;100317.66;;;4.33;62.52
7026;BME280;3554;42.132;24.786;2023-02-12T06:34:08;100343.59;;;4.57;62.23
7026;BME280;3554;42.132;24.786;2023-02-12T06:36:38;100369.50;;;4.71;62.22
7026;BME280;3554;42.132;24.786;2023-02-12T06:39:05;100353.94;;;4.68;63.44
7026;BME280;3554;42.132;24.786;2023-02-12T06:41:33;100370.34;;;4.82;63.35
7026;BME280;3554;42.132;24.786;2023-02-12T06:43:59;100372.94;;;4.89;62.83
7026;BME280;3554;42.132;24.786;2023-02-12T06:46:26;100375.50;;;4.97;62.72
7026;BME280;3554;42.132;24.786;2023-02-12T06:48:53;100382.41;;;5.01;62.51
7026;BME280;3554;42.132;24.786;2023-02-12T06:51:20;100383.28;;;5.03;62.96
7026;BME280;3554;42.132;24.786;2023-02-12T06:53:49;100366.84;;;5.02;62.86
7026;BME280;3554;42.132;24.786;2023-02-12T06:56:17;100375.44;;;5.15;62.32
7026;BME280;3554;42.132;24.786;2023-02-12T06:58:46;100384.97;;;5.20;61.65
7026;BME280;3554;42.132;24.786;2023-02-12T07:01:15;100379.75;;;5.20;63.12
7026;BME280;3554;42.132;24.786;2023-02-12T07:03:43;100378.88;;;5.26;62.81
7026;BME280;3554;42.132;24.786;2023-02-12T07:06:10;100384.94;;;5.35;63.92
7026;BME280;3554;42.132;24.786;2023-02-12T07:08:37;100320.16;;;5.01;63.32
7026;BME280;3554;42.132;24.786;2023-02-12T07:11:05;100375.41;;;5.37;63.83
7026;BME280;3554;42.132;24.786;2023-02-12T07:13:32;100385.78;;;5.37;65.39
7026;BME280;3554;42.132;24.786;2023-02-12T07:16:02;100390.13;;;5.35;66.49
7026;BME280;3554;42.132;24.786;2023-02-12T07:18:30;100393.56;;;5.39;65.92
7026;BME280;3554;42.132;24.786;2023-02-12T07:20:57;100393.56;;;5.37;66.27
7026;BME280;3554;42.132;24.786;2023-02-12T07:23:23;100390.97;;;5.40;67.38
7026;BME280;3554;42.132;24.786;2023-02-12T07:25:54;100381.41;;;5.47;67.03
7026;BME280;3554;42.132;24.786;2023-02-12T07:28:23;100385.75;;;5.48;67.92
7026;BME280;3554;42.132;24.786;2023-02-12T07:30:50;100380.56;;;5.42;67.43
7026;BME280;3554;42.132;24.786;2023-02-12T07:33:17;100377.91;;;5.54;67.59
7026;BME280;3554;42.132;24.786;2023-02-12T07:35:44;100392.63;;;5.58;67.70
7026;BME280;3554;42.132;24.786;2023-02-12T07:38:11;100397.81;;;5.57;68.18
7026;BME280;3554;42.132;24.786;2023-02-12T07:40:38;100388.28;;;5.59;68.05
7026;BME280;3554;42.132;24.786;2023-02-12T07:43:05;100400.38;;;5.66;67.90
7026;BME280;3554;42.132;24.786;2023-02-12T07:45:33;100403.78;;;5.75;67.89
7026;BME280;3554;42.132;24.786;2023-02-12T07:48:00;100406.38;;;5.74;67.69
7026;BME280;3554;42.132;24.786;2023-02-12T07:50:26;100408.13;;;5.73;68.23
7026;BME280;3554;42.132;24.786;2023-02-12T07:52:53;100408.09;;;5.87;68.89
7026;BME280;3554;42.132;24.786;2023-02-12T07:55:20;100404.59;;;5.89;68.13
7026;BME280;3554;42.132;24.786;2023-02-12T07:57:47;100382.19;;;5.66;68.41
7026;BME280;3554;42.132;24.786;2023-02-12T08:00:14;100412.41;;;5.92;69.26
7026;BME280;3554;42.132;24.786;2023-02-12T08:02:42;100410.63;;;6.03;68.16
7026;BME280;3554;42.132;24.786;2023-02-12T08:05:09;100414.97;;;6.00;68.02
7026;BME280;3554;42.132;24.786;2023-02-12T08:07:36;100398.56;;;5.84;68.68
7026;BME280;3554;42.132;24.786;2023-02-12T08:10:03;100432.31;;;5.93;69.04
7026;BME280;3554;42.132;24.786;2023-02-12T08:12:30;100427.97;;;6.00;69.19
7026;BME280;3554;42.132;24.786;2023-02-12T08:14:57;100418.34;;;6.12;69.72
7026;BME280;3554;42.132;24.786;2023-02-12T08:17:24;100429.66;;;6.02;69.50
7026;BME280;3554;42.132;24.786;2023-02-12T08:19:52;100438.34;;;6.03;69.17
7026;BME280;3554;42.132;24.786;2023-02-12T08:22:19;100442.66;;;6.02;70.87
7026;BME280;3554;42.132;24.786;2023-02-12T08:24:46;100435.69;;;6.07;70.39
7026;BME280;3554;42.132;24.786;2023-02-12T08:27:13;100435.72;;;6.06;70.97
7026;BME280;3554;42.132;24.786;2023-02-12T08:29:40;100443.50;;;6.07;71.69
7026;BME280;3554;42.132;24.786;2023-02-12T08:32:06;100454.72;;;6.15;72.99
7026;BME280;3554;42.132;24.786;2023-02-12T08:34:38;100436.53;;;6.14;73.55
7026;BME280;3554;42.132;24.786;2023-02-12T08:37:06;100455.53;;;6.22;73.49
7026;BME280;3554;42.132;24.786;2023-02-12T08:39:33;100449.41;;;6.30;74.57
7026;BME280;3554;42.132;24.786;2023-02-12T08:42:00;100418.25;;;6.27;75.79
7026;BME280;3554;42.132;24.786;2023-02-12T08:44:27;100453.69;;;6.43;78.29
7026;BME280;3554;42.132;24.786;2023-02-12T08:46:54;100417.44;;;6.21;80.13
7026;BME280;3554;42.132;24.786;2023-02-12T08:49:22;100460.63;;;6.41;83.49
7026;BME280;3554;42.132;24.786;2023-02-12T08:51:51;100449.34;;;6.41;86.19
7026;BME280;3554;42.132;24.786;2023-02-12T08:54:21;100466.63;;;6.51;88.29
7026;BME280;3554;42.132;24.786;2023-02-12T08:56:49;100466.72;;;6.40;90.73
7026;BME280;3554;42.132;24.786;2023-02-12T08:59:16;100408.78;;;6.17;92.68
7026;BME280;3554;42.132;24.786;2023-02-12T09:01:43;100451.06;;;6.43;93.36
7026;BME280;3554;42.132;24.786;2023-02-12T09:04:14;100462.25;;;6.56;94.10
7026;BME280;3554;42.132;24.786;2023-02-12T09:06:42;100463.19;;;6.44;92.86
7026;BME280;3554;42.132;24.786;2023-02-12T09:09:09;100480.53;;;6.45;94.91
7026;BME280;3554;42.132;24.786;2023-02-12T09:11:37;100477.06;;;6.49;94.44
7026;BME280;3554;42.132;24.786;2023-02-12T09:14:06;100477.88;;;6.56;94.18
7026;BME280;3554;42.132;24.786;2023-02-12T09:16:35;100321.56;;;5.73;92.98
7026;BME280;3554;42.132;24.786;2023-02-12T09:19:02;100485.56;;;6.73;92.52
7026;BME280;3554;42.132;24.786;2023-02-12T09:21:29;100461.38;;;6.60;91.48
7026;BME280;3554;42.132;24.786;2023-02-12T09:23:56;100483.88;;;6.64;92.67
7026;BME280;3554;42.132;24.786;2023-02-12T09:26:24;100478.75;;;6.57;94.49
7026;BME280;3554;42.132;24.786;2023-02-12T09:28:52;100478.75;;;6.57;96.51
7026;BME280;3554;42.132;24.786;2023-02-12T09:31:21;100485.59;;;6.67;95.60
7026;BME280;3554;42.132;24.786;2023-02-12T09:33:51;100488.94;;;6.84;95.80
7026;BME280;3554;42.132;24.786;2023-02-12T09:36:19;100498.41;;;6.94;94.98
7026;BME280;3554;42.132;24.786;2023-02-12T09:38:46;100496.66;;;6.97;95.19
7026;BME280;3554;42.132;24.786;2023-02-12T09:41:28;100496.53;;;7.09;95.00
7026;BME280;3554;42.132;24.786;2023-02-12T09:44:03;100494.81;;;7.08;94.95
7026;BME280;3554;42.132;24.786;2023-02-12T09:46:35;100491.47;;;6.91;95.67
7026;BME280;3554;42.132;24.786;2023-02-12T09:49:07;100491.59;;;6.78;97.26
7026;BME280;3554;42.132;24.786;2023-02-12T09:51:37;100504.50;;;6.90;96.42
7026;BME280;3554;42.132;24.786;2023-02-12T09:54:13;100484.72;;;6.66;97.29
7026;BME280;3554;42.132;24.786;2023-02-12T09:56:42;100481.34;;;6.52;98.64
7026;BME280;3554;42.132;24.786;2023-02-12T09:59:19;100492.53;;;6.65;99.53
7026;BME280;3554;42.132;24.786;2023-02-12T10:01:49;100493.44;;;6.64;98.76
7026;BME280;3554;42.132;24.786;2023-02-12T10:04:16;100489.94;;;6.65;98.43
7026;BME280;3554;42.132;24.786;2023-02-12T10:06:47;100495.13;;;6.69;99.54
7026;BME280;3554;42.132;24.786;2023-02-12T10:09:27;100490.69;;;6.80;98.33
7026;BME280;3554;42.132;24.786;2023-02-12T10:12:03;100497.47;;;7.02;97.05
7026;BME280;3554;42.132;24.786;2023-02-12T10:14:50;100484.31;;;7.17;93.31
7026;BME280;3554;42.132;24.786;2023-02-12T10:17:26;100496.97;;;7.53;92.02
7026;BME280;3554;42.132;24.786;2023-02-12T10:20:19;100494.03;;;7.87;90.00
7026;BME280;3554;42.132;24.786;2023-02-12T10:22:55;100483.25;;;8.12;86.84
7026;BME280;3554;42.132;24.786;2023-02-12T10:25:27;100483.13;;;8.26;82.34
7026;BME280;3554;42.132;24.786;2023-02-12T10:27:58;100482.97;;;8.35;77.20
7026;BME280;3554;42.132;24.786;2023-02-12T10:30:34;100489.97;;;8.34;76.73
7026;BME280;3554;42.132;24.786;2023-02-12T10:33:09;100487.16;;;8.46;74.89
7026;BME280;3554;42.132;24.786;2023-02-12T10:35:43;100485.63;;;8.32;75.11
7026;BME280;3554;42.132;24.786;2023-02-12T10:38:15;100471.56;;;8.43;74.43
7026;BME280;3554;42.132;24.786;2023-02-12T10:40:44;100488.53;;;8.72;74.44
7026;BME280;3554;42.132;24.786;2023-02-12T10:43:11;100486.53;;;8.89;71.64
7026;BME280;3554;42.132;24.786;2023-02-12T10:45:42;100489.88;;;8.97;72.15
7026;BME280;3554;42.132;24.786;2023-02-12T10:48:10;100492.34;;;9.04;72.68
7026;BME280;3554;42.132;24.786;2023-02-12T10:50:56;100490.69;;;9.00;75.66
7026;BME280;3554;42.132;24.786;2023-02-12T10:53:31;100471.78;;;8.86;76.04
7026;BME280;3554;42.132;24.786;2023-02-12T10:56:08;100489.03;;;8.95;77.17
7026;BME280;3554;42.132;24.786;2023-02-12T10:58:38;100492.63;;;8.89;77.79
7026;BME280;3554;42.132;24.786;2023-02-12T11:01:16;100484.69;;;8.94;76.71
7026;BME280;3554;42.132;24.786;2023-02-12T11:03:46;100476.00;;;8.95;77.32
7026;BME280;3554;42.132;24.786;2023-02-12T11:06:15;100492.59;;;8.91;74.53
7026;BME280;3554;42.132;24.786;2023-02-12T11:08:42;100499.44;;;8.98;74.62
7026;BME280;3554;42.132;24.786;2023-02-12T11:11:11;100493.22;;;9.05;72.68
7026;BME280;3554;42.132;24.786;2023-02-12T11:13:41;100480.47;;;8.87;71.26
7026;BME280;3554;42.132;24.786;2023-02-12T11:16:11;100490.03;;;8.88;71.29
7026;BME280;3554;42.132;24.786;2023-02-12T11:18:38;100506.34;;;9.02;71.66
7026;BME280;3554;42.132;24.786;2023-02-12T11:21:06;100500.00;;;9.16;70.00
7026;BME280;3554;42.132;24.786;2023-02-12T11:23:35;100496.38;;;9.25;70.02
7026;BME280;3554;42.132;24.786;2023-02-12T11:26:05;100506.00;;;9.21;68.91
7026;BME280;3554;42.132;24.786;2023-02-12T11:28:34;100513.63;;;9.33;68.66
7026;BME280;3554;42.132;24.786;2023-02-12T11:31:03;100486.94;;;9.16;69.13
7026;BME280;3554;42.132;24.786;2023-02-12T11:33:32;100500.72;;;9.24;69.78
7026;BME280;3554;42.132;24.786;2023-02-12T11:36:03;100505.16;;;9.19;68.93
7026;BME280;3554;42.132;24.786;2023-02-12T11:38:33;100499.03;;;9.22;67.53
7026;BME280;3554;42.132;24.786;2023-02-12T11:41:06;100502.41;;;9.28;68.11
7026;BME280;3554;42.132;24.786;2023-02-12T11:43:35;100506.13;;;9.14;68.49
7026;BME280;3554;42.132;24.786;2023-02-12T11:46:05;100510.56;;;9.09;67.75
7026;BME280;3554;42.132;24.786;2023-02-12T11:48:37;100457.09;;;8.79;68.03
7026;BME280;3554;42.132;24.786;2023-02-12T11:51:06;100513.97;;;9.14;68.84
7026;BME280;3554;42.132;24.786;2023-02-12T11:53:37;100505.44;;;9.03;68.25
7026;BME280;3554;42.132;24.786;2023-02-12T11:56:08;100499.38;;;9.02;67.60
7026;BME280;3554;42.132;24.786;2023-02-12T11:58:36;100495.06;;;9.00;68.27
7026;BME280;3554;42.132;24.786;2023-02-12T12:01:07;100472.63;;;8.88;67.37
7026;BME280;3554;42.132;24.786;2023-02-12T12:03:44;100502.66;;;9.13;67.53
7026;BME280;3554;42.132;24.786;2023-02-12T12:06:21;100487.75;;;9.20;67.39
7026;BME280;3554;42.132;24.786;2023-02-12T12:08:54;100500.66;;;9.29;66.99
7026;BME280;3554;42.132;24.786;2023-02-12T12:11:27;100494.47;;;9.34;66.58
7026;BME280;3554;42.132;24.786;2023-02-12T12:14:00;100408.63;;;9.15;66.15
7026;BME280;3554;42.132;24.786;2023-02-12T12:16:33;100502.56;;;9.68;65.97
7026;BME280;3554;42.132;24.786;2023-02-12T12:19:23;100492.13;;;9.65;65.72
7026;BME280;3554;42.132;24.786;2023-02-12T12:22:15;100500.56;;;9.79;66.53
7026;BME280;3554;42.132;24.786;2023-02-12T12:24:51;100508.31;;;9.85;65.41
7026;BME280;3554;42.132;24.786;2023-02-12T12:27:24;100514.66;;;9.72;66.39
7026;BME280;3554;42.132;24.786;2023-02-12T12:30:16;100509.03;;;9.92;66.16
7026;BME280;3554;42.132;24.786;2023-02-12T12:32:46;100510.09;;;9.83;65.08
7026;BME280;3554;42.132;24.786;2023-02-12T12:35:20;100520.31;;;9.97;64.76
7026;BME280;3554;42.132;24.786;2023-02-12T12:37:53;100500.47;;;9.85;64.66
7026;BME280;3554;42.132;24.786;2023-02-12T12:40:34;100528.47;;;9.80;65.34
7026;BME280;3554;42.132;24.786;2023-02-12T12:43:13;100527.91;;;9.64;65.13
7026;BME280;3554;42.132;24.786;2023-02-12T12:46:12;100531.25;;;9.71;65.46
7026;BME280;3554;42.132;24.786;2023-02-12T12:48:52;100534.13;;;9.57;65.65
7026;BME280;3554;42.132;24.786;2023-02-12T12:51:31;100530.72;;;9.51;65.89
7026;BME280;3554;42.132;24.786;2023-02-12T12:54:16;100535.13;;;9.50;66.64
7026;BME280;3554;42.132;24.786;2023-02-12T12:56:54;100539.34;;;9.56;67.17
7026;BME280;3554;42.132;24.786;2023-02-12T12:59:54;100547.16;;;9.59;66.81
7026;BME280;3554;42.132;24.786;2023-02-12T13:05:46;100555.75;;;9.65;66.84
7026;BME280;3554;42.132;24.786;2023-02-12T13:08:39;100554.16;;;9.57;66.37
7026;BME280;3554;42.132;24.786;2023-02-12T13:11:16;100553.31;;;9.55;66.25
7026;BME280;3554;42.132;24.786;2023-02-12T13:13:49;100544.78;;;9.44;66.19
7026;BME280;3554;42.132;24.786;2023-02-12T13:16:23;100547.28;;;9.51;65.97
7026;BME280;3554;42.132;24.786;2023-02-12T13:18:57;100562.88;;;9.56;66.47
7026;BME280;3554;42.132;24.786;2023-02-12T13:21:35;100567.41;;;9.46;66.96
7026;BME280;3554;42.132;24.786;2023-02-12T13:24:16;100576.88;;;9.53;64.91
7026;BME280;3554;42.132;24.786;2023-02-12T13:26:50;100570.84;;;9.50;65.25
7026;BME280;3554;42.132;24.786;2023-02-12T13:29:21;100543.25;;;9.34;67.04
7026;BME280;3554;42.132;24.786;2023-02-12T13:31:56;100577.03;;;9.44;66.52
7026;BME280;3554;42.132;24.786;2023-02-12T13:34:26;100579.59;;;9.46;66.71